sensor_id;sensor_type;location;lat;lon;timestamp;temperature;humidity
1079;DHT22;528;47.872;11.478;2022-09-09T00:21:05;16.80;99.90
1079;DHT22;528;47.872;11.478;2022-09-09T00:24:19;16.80;99.90
1079;DHT22;528;47.872;11.478;2022-09-09T03:17:30;16.90;99.90
1079;DHT22;528;47.872;11.478;2022-09-09T03:19:58;16.90;99.90
1079;DHT22;528;47.872;11.478;2022-09-09T03:22:31;16.90;99.90
1079;DHT22;528;47.872;11.478;2022-09-09T03:24:59;16.90;99.90
1079;DHT22;528;47.872;11.478;2022-09-09T03:27:31;16.90;99.90
1079;DHT22;528;47.872;11.478;2022-09-09T03:29:59;16.90;99.90
1079;DHT22;528;47.872;11.478;2022-09-09T03:32:31;16.90;99.90
1079;DHT22;528;47.872;11.478;2022-09-09T03:34:58;16.90;99.90
1079;DHT22;528;47.872;11.478;2022-09-09T03:37:26;16.90;99.90
1079;DHT22;528;47.872;11.478;2022-09-09T03:39:53;17.00;99.90
1079;DHT22;528;47.872;11.478;2022-09-09T03:42:21;17.00;99.90
1079;DHT22;528;47.872;11.478;2022-09-09T03:44:49;17.00;99.90
1079;DHT22;528;47.872;11.478;2022-09-09T03:47:25;17.00;99.90
1079;DHT22;528;47.872;11.478;2022-09-09T03:49:54;17.10;99.90
1079;DHT22;528;47.872;11.478;2022-09-09T03:52:22;17.10;99.90
1079;DHT22;528;47.872;11.478;2022-09-09T03:54:52;17.10;99.90
1079;DHT22;528;47.872;11.478;2022-09-09T03:57:21;17.10;99.90
1079;DHT22;528;47.872;11.478;2022-09-09T03:59:48;17.10;99.90
1079;DHT22;528;47.872;11.478;2022-09-09T04:02:16;17.20;99.90
1079;DHT22;528;47.872;11.478;2022-09-09T04:04:43;17.20;99.90
1079;DHT22;528;47.872;11.478;2022-09-09T04:07:21;17.20;99.90
1079;DHT22;528;47.872;11.478;2022-09-09T04:09:50;17.20;99.90
1079;DHT22;528;47.872;11.478;2022-09-09T04:12:18;17.10;99.90
1079;DHT22;528;47.872;11.478;2022-09-09T04:14:49;17.10;99.90
1079;DHT22;528;47.872;11.478;2022-09-09T04:17:19;17.10;99.90
1079;DHT22;528;47.872;11.478;2022-09-09T04:19:48;17.10;99.90
1079;DHT22;528;47.872;11.478;2022-09-09T04:22:16;17.10;99.90
1079;DHT22;528;47.872;11.478;2022-09-09T04:24:46;17.10;99.90
1079;DHT22;528;47.872;11.478;2022-09-09T04:27:13;17.10;99.90
1079;DHT22;528;47.872;11.478;2022-09-09T04:29:40;17.10;99.90
1079;DHT22;528;47.872;11.478;2022-09-09T04:32:07;17.00;99.90
1079;DHT22;528;47.872;11.478;2022-09-09T04:34:38;17.00;99.90
1079;DHT22;528;47.872;11.478;2022-09-09T04:37:07;17.00;99.90
1079;DHT22;528;47.872;11.478;2022-09-09T04:39:37;17.00;99.90
1079;DHT22;528;47.872;11.478;2022-09-09T04:42:04;17.00;99.90
1079;DHT22;528;47.872;11.478;2022-09-09T04:44:32;17.00;99.90
1079;DHT22;528;47.872;11.478;2022-09-09T04:46:59;17.00;99.90
1079;DHT22;528;47.872;11.478;2022-09-09T04:49:26;16.90;99.90
1079;DHT22;528;47.872;11.478;2022-09-09T04:51:56;17.00;99.90
1079;DHT22;528;47.872;11.478;2022-09-09T04:54:23;16.90;99.90
1079;DHT22;528;47.872;11.478;2022-09-09T04:56:52;16.90;99.90
1079;DHT22;528;47.872;11.478;2022-09-09T04:59:20;16.80;99.90
1079;DHT22;528;47.872;11.478;2022-09-09T05:01:47;16.80;99.90
1079;DHT22;528;47.872;11.478;2022-09-09T05:04:16;16.80;99.90
1079;DHT22;528;47.872;11.478;2022-09-09T05:06:51;16.80;99.90
1079;DHT22;528;47.872;11.478;2022-09-09T05:09:21;16.80;99.90
1079;DHT22;528;47.872;11.478;2022-09-09T05:11:49;16.80;99.90
1079;DHT22;528;47.872;11.478;2022-09-09T05:14:20;16.80;99.90
1079;DHT22;528;47.872;11.478;2022-09-09T05:16:48;16.80;99.90
1079;DHT22;528;47.872;11.478;2022-09-09T05:19:15;16.80;99.90
1079;DHT22;528;47.872;11.478;2022-09-09T05:21:44;16.80;99.90
1079;DHT22;528;47.872;11.478;2022-09-09T05:24:14;16.80;99.90
1079;DHT22;528;47.872;11.478;2022-09-09T05:26:44;16.80;99.90
1079;DHT22;528;47.872;11.478;2022-09-09T05:29:11;16.80;99.90
1079;DHT22;528;47.872;11.478;2022-09-09T05:31:41;16.90;99.90
1079;DHT22;528;47.872;11.478;2022-09-09T05:34:16;16.80;99.90
1079;DHT22;528;47.872;11.478;2022-09-09T05:36:43;16.80;99.90
1079;DHT22;528;47.872;11.478;2022-09-09T05:39:12;16.90;99.90
1079;DHT22;528;47.872;11.478;2022-09-09T05:41:41;16.90;99.90
1079;DHT22;528;47.872;11.478;2022-09-09T05:44:08;16.90;99.90
1079;DHT22;528;47.872;11.478;2022-09-09T05:46:35;16.90;99.90
1079;DHT22;528;47.872;11.478;2022-09-09T05:49:04;17.00;99.90
1079;DHT22;528;47.872;11.478;2022-09-09T05:51:33;17.00;99.90
1079;DHT22;528;47.872;11.478;2022-09-09T05:54:03;17.00;99.90
1079;DHT22;528;47.872;11.478;2022-09-09T05:56:31;17.00;99.90
1079;DHT22;528;47.872;11.478;2022-09-09T05:58:58;17.00;99.90
1079;DHT22;528;47.872;11.478;2022-09-09T06:01:27;17.00;99.90
1079;DHT22;528;47.872;11.478;2022-09-09T06:03:56;17.00;99.90
1079;DHT22;528;47.872;11.478;2022-09-09T06:06:26;17.00;99.90
1079;DHT22;528;47.872;11.478;2022-09-09T06:08:56;17.00;99.90
1079;DHT22;528;47.872;11.478;2022-09-09T06:11:26;17.00;99.90
1079;DHT22;528;47.872;11.478;2022-09-09T06:13:57;17.00;99.90
1079;DHT22;528;47.872;11.478;2022-09-09T06:16:28;17.00;99.90
1079;DHT22;528;47.872;11.478;2022-09-09T06:18:58;17.00;99.90
1079;DHT22;528;47.872;11.478;2022-09-09T06:21:29;17.00;99.90
1079;DHT22;528;47.872;11.478;2022-09-09T06:24:04;17.00;99.90
1079;DHT22;528;47.872;11.478;2022-09-09T06:26:34;17.00;99.90
1079;DHT22;528;47.872;11.478;2022-09-09T06:29:03;17.00;99.90
1079;DHT22;528;47.872;11.478;2022-09-09T06:31:34;16.90;99.90
1079;DHT22;528;47.872;11.478;2022-09-09T06:34:05;16.90;99.90
1079;DHT22;528;47.872;11.478;2022-09-09T06:36:42;16.90;99.90
1079;DHT22;528;47.872;11.478;2022-09-09T06:39:13;17.00;99.90
1079;DHT22;528;47.872;11.478;2022-09-09T06:41:41;17.00;99.90
1079;DHT22;528;47.872;11.478;2022-09-09T06:44:09;16.90;99.90
1079;DHT22;528;47.872;11.478;2022-09-09T06:46:37;16.90;99.90
1079;DHT22;528;47.872;11.478;2022-09-09T06:49:08;17.00;99.90
1079;DHT22;528;47.872;11.478;2022-09-09T06:51:38;17.00;99.90
1079;DHT22;528;47.872;11.478;2022-09-09T06:54:10;17.00;99.90
1079;DHT22;528;47.872;11.478;2022-09-09T06:56:44;17.10;99.90
1079;DHT22;528;47.872;11.478;2022-09-09T06:59:11;17.10;99.90
1079;DHT22;528;47.872;11.478;2022-09-09T07:01:41;17.10;99.90
1079;DHT22;528;47.872;11.478;2022-09-09T07:04:09;17.20;99.90
1079;DHT22;528;47.872;11.478;2022-09-09T07:06:42;17.20;99.90
1079;DHT22;528;47.872;11.478;2022-09-09T07:09:11;17.20;99.90
1079;DHT22;528;47.872;11.478;2022-09-09T07:11:41;17.20;99.90
1079;DHT22;528;47.872;11.478;2022-09-09T07:14:22;17.20;99.90
1079;DHT22;528;47.872;11.478;2022-09-09T07:16:50;17.20;99.90
1079;DHT22;528;47.872;11.478;2022-09-09T07:19:17;17.20;99.90
1079;DHT22;528;47.872;11.478;2022-09-09T07:21:47;17.30;99.90
1079;DHT22;528;47.872;11.478;2022-09-09T07:24:15;17.30;99.90
1079;DHT22;528;47.872;11.478;2022-09-09T07:26:42;17.30;99.90
1079;DHT22;528;47.872;11.478;2022-09-09T07:29:10;17.20;99.90
1079;DHT22;528;47.872;11.478;2022-09-09T07:31:39;17.20;99.90
1079;DHT22;528;47.872;11.478;2022-09-09T07:34:07;17.20;99.90
1079;DHT22;528;47.872;11.478;2022-09-09T07:36:36;17.10;99.90
1079;DHT22;528;47.872;11.478;2022-09-09T07:39:06;17.20;99.90
1079;DHT22;528;47.872;11.478;2022-09-09T07:41:37;17.20;99.90
1079;DHT22;528;47.872;11.478;2022-09-09T07:44:15;17.20;99.90
1079;DHT22;528;47.872;11.478;2022-09-09T07:46:53;17.20;99.90
1079;DHT22;528;47.872;11.478;2022-09-09T07:49:35;17.20;99.90
1079;DHT22;528;47.872;11.478;2022-09-09T07:55:44;17.30;99.90
1079;DHT22;528;47.872;11.478;2022-09-09T07:58:25;17.30;99.90
1079;DHT22;528;47.872;11.478;2022-09-09T08:01:11;17.30;99.90
1079;DHT22;528;47.872;11.478;2022-09-09T11:37:13;18.10;99.90
1079;DHT22;528;47.872;11.478;2022-09-09T11:40:14;18.20;99.90
1079;DHT22;528;47.872;11.478;2022-09-09T11:43:03;18.20;99.90
1079;DHT22;528;47.872;11.478;2022-09-09T11:46:08;18.20;99.90
1079;DHT22;528;47.872;11.478;2022-09-09T11:48:59;18.20;99.90
1079;DHT22;528;47.872;11.478;2022-09-09T11:51:45;18.20;99.90
1079;DHT22;528;47.872;11.478;2022-09-09T12:00:47;18.30;99.90
1079;DHT22;528;47.872;11.478;2022-09-09T12:03:35;18.40;99.90
1079;DHT22;528;47.872;11.478;2022-09-09T12:06:30;18.30;99.90
1079;DHT22;528;47.872;11.478;2022-09-09T12:09:26;18.30;99.90
1079;DHT22;528;47.872;11.478;2022-09-09T12:12:06;18.40;99.90
1079;DHT22;528;47.872;11.478;2022-09-09T12:14:38;18.30;99.90
1079;DHT22;528;47.872;11.478;2022-09-09T12:17:19;18.30;99.90
1079;DHT22;528;47.872;11.478;2022-09-09T12:19:48;18.30;99.90
1079;DHT22;528;47.872;11.478;2022-09-09T12:22:35;18.30;99.90
1079;DHT22;528;47.872;11.478;2022-09-09T12:25:19;18.30;99.90
1079;DHT22;528;47.872;11.478;2022-09-09T12:28:04;18.30;99.90
1079;DHT22;528;47.872;11.478;2022-09-09T12:30:40;18.30;99.90
1079;DHT22;528;47.872;11.478;2022-09-09T12:33:19;18.30;99.90
1079;DHT22;528;47.872;11.478;2022-09-09T12:36:11;18.30;99.90
1079;DHT22;528;47.872;11.478;2022-09-09T12:38:43;18.40;99.90
1079;DHT22;528;47.872;11.478;2022-09-09T12:41:50;18.30;99.90
1079;DHT22;528;47.872;11.478;2022-09-09T12:44:28;18.20;99.90
1079;DHT22;528;47.872;11.478;2022-09-09T12:47:11;18.20;99.90
1079;DHT22;528;47.872;11.478;2022-09-09T12:50:31;18.10;99.90
1079;DHT22;528;47.872;11.478;2022-09-09T12:53:10;18.10;99.90
1079;DHT22;528;47.872;11.478;2022-09-09T12:56:54;18.00;99.90
1079;DHT22;528;47.872;11.478;2022-09-09T20:55:16;15.90;99.90
1079;DHT22;528;47.872;11.478;2022-09-09T21:02:00;16.00;99.90
1079;DHT22;528;47.872;11.478;2022-09-09T21:13:52;15.80;99.90
1079;DHT22;528;47.872;11.478;2022-09-09T21:16:57;15.70;99.90
1079;DHT22;528;47.872;11.478;2022-09-09T21:19:24;15.70;99.90
1079;DHT22;528;47.872;11.478;2022-09-09T21:21:54;15.60;99.90
1079;DHT22;528;47.872;11.478;2022-09-09T21:24:32;15.50;99.90
1079;DHT22;528;47.872;11.478;2022-09-09T21:27:23;15.50;99.90
1079;DHT22;528;47.872;11.478;2022-09-09T21:29:57;15.40;99.90
1079;DHT22;528;47.872;11.478;2022-09-09T21:32:51;15.40;99.90
1079;DHT22;528;47.872;11.478;2022-09-09T21:36:07;15.30;99.90
1079;DHT22;528;47.872;11.478;2022-09-09T23:50:42;14.30;99.90
1079;DHT22;528;47.872;11.478;2022-09-09T23:54:00;14.30;99.90
1079;DHT22;528;47.872;11.478;2022-09-09T23:57:22;14.30;99.90
